Time;durP1;ratioP1;P1;durP2;ratioP2;P2;SDS_P1;SDS_P2;PMS_P1;PMS_P2;Temp;Humidity;BMP_temperature;BMP_pressure;BME280_temperature;BME280_humidity;BME280_pressure;Samples;Min_cycle;Max_cycle;Signal;HPM_P1;HPM_P2
2021/07/14 00:01:55;;;;;;;6.63;2.60;;;;;;;;;;5050425;28;20045;-67
2021/07/14 00:04:20;;;;;;;12.53;2.23;;;;;;;;;;5050663;28;20021;-67
2021/07/14 00:06:45;;;;;;;4.38;2.45;;;;;;;;;;5050237;28;20680;-67
2021/07/14 00:09:10;;;;;;;3.67;2.30;;;;;;;;;;5049908;28;20630;-67
2021/07/14 00:11:40;;;;;;;9.65;2.90;;;;;;;;;;5050284;28;20021;-67
2021/07/14 00:17:15;;;;;;;5.65;1.85;;;;;;;;;;5049844;28;20074;-68
2021/07/14 00:22:30;;;;;;;4.63;2.30;;;;;;;;;;5050539;28;20492;-68
2021/07/14 00:24:55;;;;;;;8.13;2.53;;;;;;;;;;5049586;28;20025;-68
2021/07/14 00:27:20;;;;;;;7.07;1.88;;;;;;;;;;5050205;28;20029;-68
2021/07/14 00:29:52;;;;;;;3.03;1.95;;;;;;;;;;5049897;28;20031;-68
2021/07/14 00:32:18;;;;;;;8.73;1.90;;;;;;;;;;5050150;28;20021;-68
2021/07/14 00:34:43;;;;;;;4.85;2.00;;;;;;;;;;5050116;28;20059;-68
2021/07/14 00:37:09;;;;;;;5.35;1.70;;;;;;;;;;5050022;28;20197;-68
2021/07/14 00:39:34;;;;;;;3.05;2.03;;;;;;;;;;5050192;28;20017;-68
2021/07/14 00:41:59;;;;;;;19.92;2.97;;;;;;;;;;5049238;28;20104;-68
2021/07/14 00:44:24;;;;;;;7.40;1.73;;;;;;;;;;5050144;28;20029;-68
2021/07/14 00:46:53;;;;;;;7.70;1.95;;;;;;;;;;5049757;28;20296;-68
2021/07/14 00:49:18;;;;;;;5.13;1.90;;;;;;;;;;5035817;28;20083;-68
2021/07/14 00:51:43;;;;;;;3.25;2.22;;;;;;;;;;5049263;28;20025;-68
2021/07/14 00:54:09;;;;;;;11.85;1.52;;;;;;;;;;5048895;28;20016;-68
2021/07/14 00:56:34;;;;;;;3.13;1.75;;;;;;;;;;5053302;28;20569;-68
2021/07/14 00:59:00;;;;;;;2.78;2.03;;;;;;;;;;5018698;28;20089;-68
2021/07/14 01:01:25;;;;;;;1.92;1.30;;;;;;;;;;5040321;28;20021;-68
2021/07/14 01:04:09;;;;;;;4.32;1.58;;;;;;;;;;5049822;28;20051;-68
2021/07/14 01:06:53;;;;;;;2.20;1.33;;;;;;;;;;5048818;28;20099;-68
2021/07/14 01:09:24;;;;;;;8.63;1.63;;;;;;;;;;5048429;28;20025;-68
2021/07/14 01:11:50;;;;;;;1.60;1.30;;;;;;;;;;5049773;28;20521;-68
2021/07/14 01:14:22;;;;;;;3.15;1.85;;;;;;;;;;5049488;28;20511;-68
2021/07/14 01:17:00;;;;;;;5.97;1.92;;;;;;;;;;5048657;28;20033;-66
2021/07/14 01:19:43;;;;;;;2.90;1.60;;;;;;;;;;5066155;28;20021;-66
2021/07/14 01:22:14;;;;;;;1.95;1.25;;;;;;;;;;5065066;28;20016;-66
2021/07/14 01:24:54;;;;;;;3.33;1.70;;;;;;;;;;5053583;28;20049;-66
2021/07/14 01:27:20;;;;;;;3.78;1.60;;;;;;;;;;5053071;28;20029;-66
2021/07/14 01:29:53;;;;;;;10.65;2.42;;;;;;;;;;5053761;28;20071;-66
2021/07/14 01:32:20;;;;;;;6.18;1.63;;;;;;;;;;5055797;28;20028;-66
2021/07/14 01:34:47;;;;;;;9.48;1.65;;;;;;;;;;5073307;28;20028;-66
2021/07/14 01:37:15;;;;;;;2.67;1.20;;;;;;;;;;5053318;28;20025;-66
2021/07/14 01:39:41;;;;;;;6.22;2.25;;;;;;;;;;5053168;28;20473;-66
2021/07/14 01:42:07;;;;;;;7.28;1.20;;;;;;;;;;5048251;28;20057;-66
2021/07/14 01:44:33;;;;;;;10.52;1.45;;;;;;;;;;5047205;28;20025;-66
2021/07/14 01:47:00;;;;;;;4.88;1.27;;;;;;;;;;5042577;28;20034;-66
2021/07/14 01:49:28;;;;;;;10.63;1.35;;;;;;;;;;5034105;28;20017;-66
2021/07/14 01:51:57;;;;;;;7.65;1.70;;;;;;;;;;5053106;28;20021;-66
2021/07/14 01:54:23;;;;;;;6.20;1.30;;;;;;;;;;5053079;28;20016;-66
2021/07/14 01:56:49;;;;;;;2.63;1.17;;;;;;;;;;5052490;28;20021;-66
2021/07/14 01:59:15;;;;;;;5.15;1.40;;;;;;;;;;5053333;28;20539;-66
2021/07/14 02:01:41;;;;;;;2.25;1.27;;;;;;;;;;5053273;28;20059;-66
2021/07/14 02:06:52;;;;;;;4.13;1.33;;;;;;;;;;5042032;28;20501;-66
2021/07/14 02:09:18;;;;;;;4.85;1.25;;;;;;;;;;5032836;28;20026;-66
2021/07/14 02:11:45;;;;;;;2.40;0.93;;;;;;;;;;5042875;28;20024;-66
2021/07/14 02:14:12;;;;;;;5.57;1.40;;;;;;;;;;5052805;28;20021;-66
2021/07/14 02:16:37;;;;;;;3.13;1.23;;;;;;;;;;5051645;28;20450;-66
2021/07/14 02:19:04;;;;;;;3.95;1.08;;;;;;;;;;5052834;28;20056;-66
2021/07/14 02:21:29;;;;;;;1.00;0.90;;;;;;;;;;5052307;28;20033;-66
2021/07/14 02:23:54;;;;;;;3.10;1.10;;;;;;;;;;5052580;28;20027;-66
2021/07/14 02:26:19;;;;;;;2.00;1.08;;;;;;;;;;5045965;28;20741;-66
2021/07/14 02:28:45;;;;;;;4.90;1.20;;;;;;;;;;5032783;28;20040;-66
2021/07/14 02:31:10;;;;;;;3.73;1.10;;;;;;;;;;5044662;28;20028;-66
2021/07/14 02:33:35;;;;;;;3.65;1.10;;;;;;;;;;5049636;28;20289;-66
2021/07/14 02:36:02;;;;;;;5.07;0.90;;;;;;;;;;5048732;28;20017;-66
2021/07/14 02:38:40;;;;;;;3.40;1.10;;;;;;;;;;5032542;28;20132;-66
2021/07/14 02:41:18;;;;;;;2.38;1.10;;;;;;;;;;5032816;28;20026;-66
2021/07/14 02:43:45;;;;;;;4.97;1.20;;;;;;;;;;5032290;28;20064;-66
2021/07/14 02:46:13;;;;;;;2.30;1.30;;;;;;;;;;5043077;28;20390;-66
2021/07/14 02:48:39;;;;;;;3.35;1.25;;;;;;;;;;5052081;28;20017;-66
2021/07/14 02:51:05;;;;;;;4.55;1.17;;;;;;;;;;5052521;28;20017;-66
2021/07/14 02:53:33;;;;;;;3.95;1.10;;;;;;;;;;5052022;28;20016;-66
2021/07/14 02:56:00;;;;;;;4.03;1.20;;;;;;;;;;5049130;28;20035;-66
2021/07/14 02:58:28;;;;;;;4.25;0.90;;;;;;;;;;5045575;28;20036;-66
2021/07/14 03:00:54;;;;;;;0.90;0.80;;;;;;;;;;5039761;28;20039;-66
2021/07/14 03:03:21;;;;;;;6.28;1.08;;;;;;;;;;5051666;28;20048;-66
2021/07/14 03:05:46;;;;;;;10.90;1.50;;;;;;;;;;5051055;28;20024;-66
2021/07/14 03:08:14;;;;;;;7.15;1.48;;;;;;;;;;5051488;28;20104;-66
2021/07/14 03:10:41;;;;;;;3.92;1.27;;;;;;;;;;5068607;28;20112;-66
2021/07/14 03:13:06;;;;;;;1.20;1.10;;;;;;;;;;5058503;28;20029;-66
2021/07/14 03:15:32;;;;;;;4.60;1.25;;;;;;;;;;5051318;28;20021;-66
2021/07/14 03:17:58;;;;;;;3.50;1.02;;;;;;;;;;5051131;28;20029;-66
2021/07/14 03:20:23;;;;;;;5.75;1.20;;;;;;;;;;5051350;28;20025;-66
2021/07/14 03:22:49;;;;;;;5.35;1.10;;;;;;;;;;5051230;28;20040;-66
2021/07/14 03:25:15;;;;;;;8.88;1.83;;;;;;;;;;5050983;28;20021;-66
2021/07/14 03:27:41;;;;;;;6.68;1.40;;;;;;;;;;5043561;28;20101;-66
2021/07/14 03:30:07;;;;;;;5.97;1.75;;;;;;;;;;5050083;28;20021;-66
2021/07/14 03:32:32;;;;;;;3.40;1.20;;;;;;;;;;5050976;28;20044;-66
2021/07/14 03:34:57;;;;;;;2.13;1.40;;;;;;;;;;5050887;28;20392;-66
2021/07/14 03:37:23;;;;;;;2.63;0.95;;;;;;;;;;5042302;28;20340;-66
2021/07/14 03:39:48;;;;;;;2.10;1.13;;;;;;;;;;5050962;28;20496;-66
2021/07/14 03:42:15;;;;;;;5.95;1.38;;;;;;;;;;5050519;28;20079;-66
2021/07/14 03:44:41;;;;;;;2.75;1.00;;;;;;;;;;5076997;22;20123;-67
2021/07/14 03:47:08;;;;;;;7.18;1.33;;;;;;;;;;5072508;28;20063;-66
2021/07/14 03:49:34;;;;;;;3.80;1.67;;;;;;;;;;5091386;28;20044;-67
2021/07/14 03:52:00;;;;;;;5.32;1.50;;;;;;;;;;5081183;28;20035;-68
2021/07/14 03:54:27;;;;;;;5.13;1.55;;;;;;;;;;5070569;28;20095;-68
2021/07/14 03:56:52;;;;;;;4.95;1.73;;;;;;;;;;5068533;28;20376;-67
2021/07/14 03:59:17;;;;;;;2.53;1.38;;;;;;;;;;5062598;28;20103;-67
2021/07/14 04:01:43;;;;;;;2.85;1.40;;;;;;;;;;5070994;28;20027;-67
2021/07/14 04:04:10;;;;;;;1.58;1.20;;;;;;;;;;5069461;28;20031;-67
2021/07/14 04:06:35;;;;;;;5.03;1.65;;;;;;;;;;5067781;28;20025;-68
2021/07/14 04:09:18;;;;;;;3.75;1.58;;;;;;;;;;5069993;28;20024;-67
2021/07/14 04:11:44;;;;;;;5.90;1.73;;;;;;;;;;5050915;28;20021;-67
2021/07/14 04:14:09;;;;;;;4.22;2.10;;;;;;;;;;5059280;28;20077;-67
2021/07/14 04:16:34;;;;;;;8.17;1.53;;;;;;;;;;5069681;28;20021;-68
2021/07/14 04:19:00;;;;;;;4.83;2.00;;;;;;;;;;5058681;28;20689;-68
2021/07/14 04:21:26;;;;;;;5.05;1.88;;;;;;;;;;5069194;28;20345;-68
2021/07/14 04:23:51;;;;;;;10.05;2.38;;;;;;;;;;5070318;28;20028;-67
2021/07/14 04:26:16;;;;;;;4.20;2.53;;;;;;;;;;5065493;28;20107;-69
2021/07/14 04:28:41;;;;;;;3.77;1.87;;;;;;;;;;5050478;28;20104;-68
2021/07/14 04:31:06;;;;;;;13.07;2.40;;;;;;;;;;5066566;28;20263;-68
2021/07/14 04:33:32;;;;;;;4.30;2.08;;;;;;;;;;5070439;28;20259;-68
2021/07/14 04:35:58;;;;;;;4.70;2.63;;;;;;;;;;5068611;28;20083;-69
2021/07/14 04:38:23;;;;;;;6.32;2.50;;;;;;;;;;5070313;28;20312;-68
2021/07/14 04:40:48;;;;;;;9.88;2.30;;;;;;;;;;5064992;28;20125;-68
2021/07/14 04:43:14;;;;;;;6.77;1.90;;;;;;;;;;5069777;28;20643;-66
2021/07/14 04:45:39;;;;;;;6.77;2.33;;;;;;;;;;5069275;28;20274;-66
2021/07/14 04:48:05;;;;;;;6.47;2.20;;;;;;;;;;5066267;28;20306;-65
2021/07/14 04:50:31;;;;;;;6.55;2.75;;;;;;;;;;5070382;28;20258;-65
2021/07/14 04:52:56;;;;;;;5.50;2.78;;;;;;;;;;5069767;28;20018;-65
2021/07/14 04:55:21;;;;;;;8.80;3.15;;;;;;;;;;5068398;28;20020;-65
2021/07/14 04:57:47;;;;;;;7.38;3.10;;;;;;;;;;5070882;28;20107;-68
2021/07/14 05:00:16;;;;;;;8.30;2.97;;;;;;;;;;5074230;28;20103;-68
2021/07/14 05:02:41;;;;;;;8.98;3.05;;;;;;;;;;5073832;28;20032;-66
2021/07/14 05:05:07;;;;;;;7.67;3.13;;;;;;;;;;5072603;28;20411;-65
2021/07/14 05:07:32;;;;;;;12.85;4.03;;;;;;;;;;5072892;28;20368;-65
2021/07/14 05:09:57;;;;;;;6.75;3.50;;;;;;;;;;5069175;28;20730;-66
2021/07/14 05:12:23;;;;;;;6.35;3.58;;;;;;;;;;5071943;28;20024;-66
2021/07/14 05:14:48;;;;;;;5.10;4.10;;;;;;;;;;5058012;28;20438;-66
2021/07/14 05:17:13;;;;;;;11.50;3.50;;;;;;;;;;5071935;28;20070;-68
2021/07/14 05:19:38;;;;;;;17.43;4.50;;;;;;;;;;5071216;28;20305;-66
2021/07/14 05:22:03;;;;;;;5.50;3.80;;;;;;;;;;5071715;28;20247;-66
2021/07/14 05:24:29;;;;;;;7.50;4.10;;;;;;;;;;5070561;28;20904;-66
2021/07/14 05:26:54;;;;;;;8.52;3.53;;;;;;;;;;5069018;28;20392;-66
2021/07/14 05:29:19;;;;;;;5.93;3.57;;;;;;;;;;5070261;28;20084;-66
2021/07/14 05:31:44;;;;;;;15.60;4.97;;;;;;;;;;5069380;28;20810;-66
2021/07/14 05:34:09;;;;;;;13.10;5.20;;;;;;;;;;5071462;28;20121;-66
2021/07/14 05:36:35;;;;;;;10.57;4.60;;;;;;;;;;5073195;28;20468;-66
2021/07/14 05:39:00;;;;;;;7.80;3.47;;;;;;;;;;5072612;28;20110;-66
2021/07/14 05:41:26;;;;;;;4.75;3.03;;;;;;;;;;5075759;28;20074;-66
2021/07/14 05:43:51;;;;;;;14.73;4.82;;;;;;;;;;5076897;28;20040;-66
2021/07/14 05:46:16;;;;;;;5.93;3.50;;;;;;;;;;5067169;28;20013;-66
2021/07/14 05:48:42;;;;;;;8.93;4.25;;;;;;;;;;5072675;28;20271;-66
2021/07/14 05:51:07;;;;;;;9.65;4.72;;;;;;;;;;5073022;28;20059;-65
2021/07/14 05:53:32;;;;;;;6.63;3.95;;;;;;;;;;5073091;28;20025;-66
2021/07/14 05:55:57;;;;;;;9.63;3.40;;;;;;;;;;5071915;28;20020;-66
2021/07/14 05:58:22;;;;;;;6.23;3.60;;;;;;;;;;5065366;28;20314;-66
2021/07/14 06:00:47;;;;;;;5.97;3.65;;;;;;;;;;5072132;28;20270;-66
2021/07/14 06:03:13;;;;;;;7.57;3.90;;;;;;;;;;5065960;28;20054;-66
2021/07/14 06:05:38;;;;;;;11.52;4.38;;;;;;;;;;5069438;28;20755;-66
2021/07/14 06:08:03;;;;;;;6.93;3.75;;;;;;;;;;5068412;28;20021;-66
2021/07/14 06:10:29;;;;;;;8.32;3.30;;;;;;;;;;5069316;28;20028;-66
2021/07/14 06:12:58;;;;;;;8.07;4.25;;;;;;;;;;5069925;28;20020;-66
2021/07/14 06:15:23;;;;;;;6.13;3.95;;;;;;;;;;5064348;28;20013;-66
2021/07/14 06:17:49;;;;;;;16.02;4.78;;;;;;;;;;5052982;28;20029;-66
2021/07/14 06:20:14;;;;;;;12.07;4.97;;;;;;;;;;5053038;28;20021;-66
2021/07/14 06:22:39;;;;;;;7.70;3.47;;;;;;;;;;5052842;28;20032;-66
2021/07/14 06:25:05;;;;;;;5.40;3.17;;;;;;;;;;5055711;28;20095;-66
2021/07/14 06:27:30;;;;;;;6.28;3.58;;;;;;;;;;5072583;28;20030;-66
2021/07/14 06:29:55;;;;;;;9.13;3.15;;;;;;;;;;5072689;28;20024;-66
2021/07/14 06:32:20;;;;;;;3.88;2.80;;;;;;;;;;5072400;28;20104;-66
2021/07/14 06:34:46;;;;;;;18.07;3.27;;;;;;;;;;5071608;28;20050;-66
2021/07/14 06:37:11;;;;;;;4.47;3.43;;;;;;;;;;5072063;28;20642;-66
2021/07/14 06:39:36;;;;;;;4.27;2.60;;;;;;;;;;5072314;28;20320;-66
2021/07/14 06:42:02;;;;;;;8.35;3.05;;;;;;;;;;5072425;28;20253;-66
2021/07/14 06:44:27;;;;;;;4.95;3.20;;;;;;;;;;5071986;28;20024;-66
2021/07/14 06:46:52;;;;;;;4.47;2.47;;;;;;;;;;5053684;28;20066;-66
2021/07/14 06:49:18;;;;;;;4.82;2.92;;;;;;;;;;5071317;28;20033;-66
2021/07/14 06:51:43;;;;;;;3.53;2.47;;;;;;;;;;5072525;28;20481;-67
2021/07/14 06:54:08;;;;;;;8.13;2.80;;;;;;;;;;5072317;28;20417;-67
2021/07/14 06:56:33;;;;;;;4.20;2.20;;;;;;;;;;5056587;28;20724;-67
2021/07/14 06:58:59;;;;;;;11.13;2.40;;;;;;;;;;5053052;28;20036;-67
2021/07/14 07:01:24;;;;;;;4.00;2.22;;;;;;;;;;5072359;28;20455;-66
2021/07/14 07:03:49;;;;;;;7.65;2.63;;;;;;;;;;5072278;28;20486;-66
2021/07/14 07:06:14;;;;;;;5.33;2.33;;;;;;;;;;5070836;28;20028;-66
2021/07/14 07:08:39;;;;;;;3.63;2.03;;;;;;;;;;5071957;28;20277;-66
2021/07/14 07:11:05;;;;;;;3.72;1.98;;;;;;;;;;5071622;28;20016;-66
2021/07/14 07:13:30;;;;;;;3.20;2.40;;;;;;;;;;5071748;28;20013;-66
2021/07/14 07:15:56;;;;;;;2.50;1.80;;;;;;;;;;5061758;28;20055;-66
2021/07/14 07:18:21;;;;;;;4.35;2.38;;;;;;;;;;5051718;28;20037;-66
2021/07/14 07:20:47;;;;;;;4.22;1.67;;;;;;;;;;5050976;28;20056;-66
2021/07/14 07:23:12;;;;;;;2.50;1.63;;;;;;;;;;5067701;28;20024;-66
2021/07/14 07:25:38;;;;;;;4.10;2.40;;;;;;;;;;5070735;28;20032;-66
2021/07/14 07:28:04;;;;;;;3.03;2.00;;;;;;;;;;5071483;28;20758;-66
2021/07/14 07:30:30;;;;;;;4.32;1.90;;;;;;;;;;5071425;28;20423;-66
2021/07/14 07:32:55;;;;;;;3.30;2.28;;;;;;;;;;5071499;28;20062;-66
2021/07/14 07:35:21;;;;;;;4.38;2.20;;;;;;;;;;5068251;28;20532;-66
2021/07/14 07:37:46;;;;;;;2.70;1.92;;;;;;;;;;5071503;28;20035;-66
2021/07/14 07:40:12;;;;;;;3.60;2.00;;;;;;;;;;5071462;28;20150;-66
2021/07/14 07:42:37;;;;;;;4.60;1.90;;;;;;;;;;5066397;28;20259;-66
2021/07/14 07:45:03;;;;;;;2.05;1.50;;;;;;;;;;5051307;28;20058;-66
2021/07/14 07:47:28;;;;;;;6.68;3.60;;;;;;;;;;5070783;28;20028;-66
2021/07/14 07:49:54;;;;;;;5.57;3.05;;;;;;;;;;5071390;28;20499;-66
2021/07/14 07:52:19;;;;;;;3.72;2.33;;;;;;;;;;5071072;28;20046;-66
2021/07/14 07:54:45;;;;;;;7.33;2.30;;;;;;;;;;5058925;28;20021;-66
2021/07/14 07:57:10;;;;;;;4.70;2.45;;;;;;;;;;5051798;28;20256;-67
2021/07/14 07:59:35;;;;;;;5.97;2.55;;;;;;;;;;5070896;28;20027;-66
2021/07/14 08:02:01;;;;;;;5.05;2.33;;;;;;;;;;5071131;28;20028;-67
2021/07/14 08:04:26;;;;;;;5.22;2.17;;;;;;;;;;5070285;28;20051;-66
2021/07/14 08:06:52;;;;;;;3.42;2.10;;;;;;;;;;5070664;28;20016;-66
2021/07/14 08:09:17;;;;;;;13.05;2.50;;;;;;;;;;5070635;28;20154;-67
2021/07/14 08:11:42;;;;;;;6.50;3.00;;;;;;;;;;5070939;28;20017;-67
2021/07/14 08:14:07;;;;;;;4.90;3.00;;;;;;;;;;5064271;28;20263;-67
2021/07/14 08:16:33;;;;;;;3.55;2.03;;;;;;;;;;5058425;28;20024;-67
2021/07/14 08:18:58;;;;;;;6.25;2.42;;;;;;;;;;5070934;28;20027;-66
2021/07/14 08:21:24;;;;;;;4.13;1.77;;;;;;;;;;5071117;28;20484;-66
2021/07/14 08:23:49;;;;;;;3.65;2.05;;;;;;;;;;5070128;28;20263;-66
2021/07/14 08:26:14;;;;;;;3.95;1.90;;;;;;;;;;5069885;28;20024;-65
2021/07/14 08:28:40;;;;;;;2.63;1.90;;;;;;;;;;5070774;28;20577;-65
2021/07/14 08:31:05;;;;;;;2.28;1.70;;;;;;;;;;5070739;28;20524;-66
2021/07/14 08:33:30;;;;;;;3.15;1.90;;;;;;;;;;5069395;28;20123;-65
2021/07/14 08:35:56;;;;;;;3.63;1.60;;;;;;;;;;5050361;28;20025;-66
2021/07/14 08:38:21;;;;;;;2.90;1.80;;;;;;;;;;5056614;28;20028;-66
2021/07/14 08:40:49;;;;;;;4.25;1.58;;;;;;;;;;5070762;28;20302;-67
2021/07/14 08:43:15;;;;;;;2.83;1.70;;;;;;;;;;5070253;28;20035;-67
2021/07/14 08:45:40;;;;;;;4.60;2.28;;;;;;;;;;5069567;28;20099;-67
2021/07/14 08:48:06;;;;;;;4.03;2.03;;;;;;;;;;5082348;28;20551;-67
2021/07/14 08:50:32;;;;;;;7.95;2.08;;;;;;;;;;5070504;28;20059;-67
2021/07/14 08:52:58;;;;;;;3.40;1.85;;;;;;;;;;5070877;28;20430;-67
2021/07/14 08:55:24;;;;;;;4.85;2.55;;;;;;;;;;5053829;28;20042;-66
2021/07/14 08:57:49;;;;;;;3.37;2.17;;;;;;;;;;5061156;28;20477;-67
2021/07/14 09:00:17;;;;;;;2.50;1.52;;;;;;;;;;5070080;28;20263;-67
2021/07/14 09:02:42;;;;;;;4.32;1.55;;;;;;;;;;5070610;28;20025;-67
2021/07/14 09:05:08;;;;;;;6.20;1.77;;;;;;;;;;5056384;28;20482;-67
2021/07/14 09:07:34;;;;;;;4.30;2.22;;;;;;;;;;5050386;28;20036;-67
2021/07/14 09:10:01;;;;;;;8.48;1.77;;;;;;;;;;5054127;28;20032;-67
2021/07/14 09:12:34;;;;;;;16.90;1.50;;;;;;;;;;5070185;28;20027;-67
2021/07/14 09:15:03;;;;;;;2.33;1.48;;;;;;;;;;5068779;28;20520;-67
2021/07/14 09:17:28;;;;;;;6.57;2.10;;;;;;;;;;5070195;28;20094;-67
2021/07/14 09:20:08;;;;;;;2.50;1.30;;;;;;;;;;5070108;28;20048;-67
2021/07/14 09:22:34;;;;;;;4.43;1.20;;;;;;;;;;5069577;28;20277;-67
2021/07/14 09:25:06;;;;;;;1.33;1.00;;;;;;;;;;5057546;28;20545;-66
2021/07/14 09:27:35;;;;;;;2.72;1.60;;;;;;;;;;5050082;28;20025;-66
2021/07/14 09:30:10;;;;;;;3.20;1.40;;;;;;;;;;5060963;28;20020;-67
2021/07/14 09:32:54;;;;;;;14.88;2.30;;;;;;;;;;5051235;28;20058;-67
2021/07/14 09:35:22;;;;;;;2.80;2.20;;;;;;;;;;5055757;28;20539;-67
2021/07/14 09:37:48;;;;;;;3.08;1.95;;;;;;;;;;5065707;28;20028;-66
2021/07/14 09:40:14;;;;;;;2.65;1.70;;;;;;;;;;5069806;28;20027;-66
2021/07/14 09:42:48;;;;;;;2.00;1.25;;;;;;;;;;5069853;28;20040;-67
2021/07/14 09:45:13;;;;;;;3.92;1.50;;;;;;;;;;5070573;22;20956;-66
2021/07/14 09:47:38;;;;;;;3.95;1.60;;;;;;;;;;5044305;28;20047;-66
2021/07/14 09:50:04;;;;;;;1.30;0.90;;;;;;;;;;5053449;28;20027;-66
2021/07/14 09:52:29;;;;;;;3.25;1.63;;;;;;;;;;5053316;28;20252;-66
2021/07/14 09:55:07;;;;;;;5.57;1.40;;;;;;;;;;5037601;28;20458;-66
2021/07/14 09:57:34;;;;;;;1.77;1.20;;;;;;;;;;5016085;28;20030;-66
2021/07/14 10:00:16;;;;;;;1.27;0.90;;;;;;;;;;5033377;28;20452;-66
2021/07/14 10:02:53;;;;;;;2.05;1.30;;;;;;;;;;5033051;28;20022;-66
2021/07/14 10:05:18;;;;;;;1.88;1.00;;;;;;;;;;5032963;28;20536;-66
2021/07/14 10:07:44;;;;;;;2.00;1.30;;;;;;;;;;5016772;28;20029;-66
2021/07/14 10:10:12;;;;;;;4.50;1.95;;;;;;;;;;5033079;28;20026;-66
2021/07/14 10:12:40;;;;;;;2.17;1.20;;;;;;;;;;5033103;28;20045;-66
2021/07/14 10:15:14;;;;;;;2.40;1.50;;;;;;;;;;5032576;28;20032;-66
2021/07/14 10:17:41;;;;;;;4.18;1.90;;;;;;;;;;5017685;28;20105;-66
2021/07/14 10:20:21;;;;;;;6.32;1.80;;;;;;;;;;5032798;28;20420;-66
2021/07/14 10:22:49;;;;;;;3.25;1.60;;;;;;;;;;5032659;28;20029;-66
2021/07/14 10:25:16;;;;;;;3.08;1.40;;;;;;;;;;5032731;28;20117;-66
2021/07/14 10:27:41;;;;;;;3.15;1.52;;;;;;;;;;5031540;28;20112;-66
2021/07/14 10:30:06;;;;;;;1.73;1.50;;;;;;;;;;5012766;28;20114;-66
2021/07/14 10:32:32;;;;;;;2.88;1.83;;;;;;;;;;5013053;28;20018;-66
2021/07/14 10:34:57;;;;;;;3.65;1.73;;;;;;;;;;5012457;28;20018;-66
2021/07/14 10:37:22;;;;;;;2.97;1.57;;;;;;;;;;5012848;28;20021;-66
2021/07/14 10:39:48;;;;;;;7.20;2.42;;;;;;;;;;5018369;28;20253;-66
2021/07/14 10:42:13;;;;;;;2.80;2.03;;;;;;;;;;5019320;28;20021;-66
2021/07/14 10:44:39;;;;;;;4.35;2.00;;;;;;;;;;5032096;28;20116;-66
2021/07/14 10:47:04;;;;;;;10.82;2.08;;;;;;;;;;5032408;28;20157;-66
2021/07/14 10:49:30;;;;;;;4.45;2.00;;;;;;;;;;5023859;28;20018;-66
2021/07/14 10:51:56;;;;;;;7.38;2.95;;;;;;;;;;5012235;28;20145;-66
2021/07/14 10:54:23;;;;;;;5.68;2.63;;;;;;;;;;5012370;28;20014;-66
2021/07/14 10:56:48;;;;;;;2.65;1.75;;;;;;;;;;5011113;28;20404;-66
2021/07/14 10:59:14;;;;;;;4.32;1.80;;;;;;;;;;5018103;28;20025;-66
2021/07/14 11:01:42;;;;;;;5.00;1.92;;;;;;;;;;5030681;28;20028;-66
2021/07/14 11:04:11;;;;;;;4.30;2.22;;;;;;;;;;5012589;28;20020;-66
2021/07/14 11:06:52;;;;;;;3.17;1.17;;;;;;;;;;5010787;28;20394;-66
2021/07/14 11:09:36;;;;;;;0.93;0.63;;;;;;;;;;5017529;28;20025;-66
2021/07/14 11:12:05;;;;;;;1.45;1.10;;;;;;;;;;5010097;28;20025;-66
2021/07/14 11:14:34;;;;;;;2.58;0.85;;;;;;;;;;5010662;28;20452;-66
2021/07/14 11:17:00;;;;;;;5.57;1.02;;;;;;;;;;5011887;28;20025;-66
2021/07/14 11:19:40;;;;;;;3.13;0.65;;;;;;;;;;5011815;28;20398;-66
2021/07/14 11:22:06;;;;;;;4.50;0.70;;;;;;;;;;5013313;28;20029;-66
2021/07/14 11:27:18;;;;;;;1.67;1.05;;;;;;;;;;5011891;28;20109;-66
2021/07/14 11:29:43;;;;;;;1.95;1.10;;;;;;;;;;5011841;28;20088;-67
2021/07/14 11:32:08;;;;;;;2.80;1.25;;;;;;;;;;5026725;28;20034;-67
2021/07/14 11:34:37;;;;;;;1.40;1.20;;;;;;;;;;5031275;28;20096;-66
2021/07/14 11:37:28;;;;;;;6.60;1.92;;;;;;;;;;5031573;28;20244;-66
2021/07/14 11:39:53;;;;;;;3.08;1.42;;;;;;;;;;5008966;28;20045;-66
2021/07/14 11:42:19;;;;;;;4.50;1.47;;;;;;;;;;5027992;28;20492;-66
2021/07/14 11:44:50;;;;;;;2.50;1.43;;;;;;;;;;5031128;28;20342;-66
2021/07/14 11:47:35;;;;;;;1.38;1.10;;;;;;;;;;5031504;28;20268;-66
2021/07/14 11:50:00;;;;;;;2.42;1.40;;;;;;;;;;5023696;28;20045;-66
2021/07/14 11:52:42;;;;;;;5.43;1.52;;;;;;;;;;5028508;28;20025;-66
2021/07/14 11:55:22;;;;;;;4.88;1.42;;;;;;;;;;5016117;28;20418;-66
2021/07/14 11:57:47;;;;;;;;;;;;;;;;;;5012088;28;20464;-66
2021/07/14 12:00:12;;;;;;;2.20;1.38;;;;;;;;;;5011280;28;19906;-66
2021/07/14 12:02:37;;;;;;;2.63;1.17;;;;;;;;;;5029114;28;20048;-66
2021/07/14 12:05:07;;;;;;;2.37;1.83;;;;;;;;;;5030798;28;20424;-66
2021/07/14 12:07:40;;;;;;;1.95;1.20;;;;;;;;;;5030434;28;20032;-66
2021/07/14 12:10:12;;;;;;;2.42;1.40;;;;;;;;;;5031074;28;20520;-66
2021/07/14 12:12:44;;;;;;;3.15;1.20;;;;;;;;;;5026915;28;20123;-66
2021/07/14 12:15:09;;;;;;;4.57;1.15;;;;;;;;;;5030578;28;20018;-66
2021/07/14 12:17:34;;;;;;;3.33;0.90;;;;;;;;;;5030717;28;20017;-66
2021/07/14 12:20:00;;;;;;;1.70;1.00;;;;;;;;;;5030777;28;20256;-66
2021/07/14 12:22:26;;;;;;;3.05;1.23;;;;;;;;;;5014247;28;20326;-66
2021/07/14 12:24:53;;;;;;;1.83;1.02;;;;;;;;;;5010565;28;20024;-66
2021/07/14 12:27:23;;;;;;;1.10;0.93;;;;;;;;;;5011025;28;20540;-66
2021/07/14 12:29:49;;;;;;;2.00;1.00;;;;;;;;;;5011142;28;20052;-66
2021/07/14 12:32:15;;;;;;;1.50;0.80;;;;;;;;;;5024542;28;20056;-66
2021/07/14 12:34:40;;;;;;;1.90;0.95;;;;;;;;;;5022194;28;20022;-66
2021/07/14 12:37:06;;;;;;;1.08;0.93;;;;;;;;;;5010817;28;20022;-66
2021/07/14 12:39:33;;;;;;;1.60;0.80;;;;;;;;;;5011776;28;20386;-66
2021/07/14 12:41:59;;;;;;;1.13;0.70;;;;;;;;;;5010838;28;20044;-66
2021/07/14 12:44:25;;;;;;;0.85;0.60;;;;;;;;;;5010225;28;20034;-66
2021/07/14 12:46:50;;;;;;;1.63;0.85;;;;;;;;;;5009928;28;20084;-66
2021/07/14 12:49:16;;;;;;;1.73;0.90;;;;;;;;;;5010381;28;20423;-66
2021/07/14 12:52:00;;;;;;;3.17;1.80;;;;;;;;;;5029175;28;20021;-66
2021/07/14 12:54:25;;;;;;;5.00;1.65;;;;;;;;;;4990779;28;20025;-67
2021/07/14 12:56:50;;;;;;;3.95;1.27;;;;;;;;;;4990627;28;20018;-67
2021/07/14 12:59:16;;;;;;;2.90;1.50;;;;;;;;;;4993733;28;20026;-66
2021/07/14 13:01:44;;;;;;;3.70;1.47;;;;;;;;;;5028401;28;20334;-66
2021/07/14 13:04:14;;;;;;;2.17;1.27;;;;;;;;;;5029876;28;20032;-67
2021/07/14 13:06:39;;;;;;;2.08;1.10;;;;;;;;;;5029850;28;20386;-67
2021/07/14 13:09:05;;;;;;;6.97;1.80;;;;;;;;;;5030163;28;20032;-66
2021/07/14 13:11:30;;;;;;;2.03;1.40;;;;;;;;;;5012648;28;20335;-66
2021/07/14 13:13:55;;;;;;;3.63;1.75;;;;;;;;;;5009985;28;20265;-66
2021/07/14 13:16:24;;;;;;;1.83;1.33;;;;;;;;;;5010062;28;20172;-66
2021/07/14 13:18:52;;;;;;;1.50;1.02;;;;;;;;;;5009792;28;20017;-66
2021/07/14 13:21:21;;;;;;;2.22;1.10;;;;;;;;;;5028884;28;20025;-66
2021/07/14 13:23:46;;;;;;;2.72;1.17;;;;;;;;;;5032086;28;20362;-66
2021/07/14 13:26:18;;;;;;;2.70;1.10;;;;;;;;;;5013850;28;20021;-67
2021/07/14 13:28:43;;;;;;;2.75;1.30;;;;;;;;;;5013901;28;20338;-66
2021/07/14 13:31:09;;;;;;;2.03;1.27;;;;;;;;;;5027505;28;20013;-66
2021/07/14 13:33:37;;;;;;;5.30;1.30;;;;;;;;;;5033564;28;20882;-66
2021/07/14 13:36:04;;;;;;;4.25;1.48;;;;;;;;;;5029319;28;20076;-66
2021/07/14 13:38:40;;;;;;;1.38;0.80;;;;;;;;;;5014023;28;20033;-66
2021/07/14 13:41:08;;;;;;;2.50;0.68;;;;;;;;;;5026125;28;20508;-66
2021/07/14 13:43:43;;;;;;;1.63;1.05;;;;;;;;;;5033334;28;20037;-66
2021/07/14 13:46:09;;;;;;;2.80;0.95;;;;;;;;;;5033230;28;20021;-67
2021/07/14 13:48:36;;;;;;;4.75;1.42;;;;;;;;;;5023275;28;20072;-67
2021/07/14 13:51:01;;;;;;;4.15;1.20;;;;;;;;;;5024882;28;20021;-67
2021/07/14 13:53:29;;;;;;;3.90;1.42;;;;;;;;;;5026680;28;20014;-66
2021/07/14 13:56:01;;;;;;;4.70;1.45;;;;;;;;;;5013309;28;20018;-66
2021/07/14 13:58:26;;;;;;;2.20;0.90;;;;;;;;;;5013348;28;20501;-66
2021/07/14 14:00:55;;;;;;;8.43;2.00;;;;;;;;;;5022826;28;20112;-67
2021/07/14 14:03:21;;;;;;;6.35;1.40;;;;;;;;;;5033186;28;20263;-67
2021/07/14 14:05:46;;;;;;;5.88;1.10;;;;;;;;;;5024822;28;20030;-67
2021/07/14 14:08:11;;;;;;;1.88;1.10;;;;;;;;;;5013827;28;20054;-67
2021/07/14 14:10:40;;;;;;;2.05;1.10;;;;;;;;;;5016803;28;20108;-67
2021/07/14 14:13:09;;;;;;;1.20;0.50;;;;;;;;;;5020742;28;20076;-67
2021/07/14 14:15:35;;;;;;;0.60;0.40;;;;;;;;;;5012556;28;20018;-67
2021/07/14 14:18:02;;;;;;;1.13;0.40;;;;;;;;;;5014689;28;20131;-67
2021/07/14 14:20:29;;;;;;;3.13;0.57;;;;;;;;;;5012904;28;20105;-67
2021/07/14 14:22:54;;;;;;;0.82;0.40;;;;;;;;;;5012780;28;20026;-67
2021/07/14 14:25:25;;;;;;;2.67;0.50;;;;;;;;;;5012557;28;20037;-67
2021/07/14 14:28:01;;;;;;;3.72;0.90;;;;;;;;;;5012137;28;20719;-67
2021/07/14 14:30:36;;;;;;;2.58;0.95;;;;;;;;;;5012387;28;20025;-67
2021/07/14 14:33:03;;;;;;;1.60;0.73;;;;;;;;;;5012599;28;20033;-67
2021/07/14 14:35:29;;;;;;;1.58;0.55;;;;;;;;;;5012263;28;20057;-67
2021/07/14 14:37:55;;;;;;;0.50;0.30;;;;;;;;;;5015214;28;20482;-67
2021/07/14 14:40:20;;;;;;;4.53;0.60;;;;;;;;;;5028782;28;20053;-67
2021/07/14 14:42:46;;;;;;;1.85;0.40;;;;;;;;;;5012583;28;20048;-67
2021/07/14 14:45:11;;;;;;;1.85;0.52;;;;;;;;;;5012073;28;20530;-67
2021/07/14 14:47:37;;;;;;;4.10;0.57;;;;;;;;;;5012818;28;20028;-67
2021/07/14 14:50:02;;;;;;;1.88;0.60;;;;;;;;;;5032089;28;20425;-67
2021/07/14 14:52:28;;;;;;;1.95;0.43;;;;;;;;;;5011949;28;20418;-67
2021/07/14 14:54:57;;;;;;;3.53;0.97;;;;;;;;;;5011704;28;20026;-67